createdAt,value
2023-04-28T00:00:17.445Z,2.50
2023-04-28T00:00:47.711Z,2.50
2023-04-28T00:01:17.857Z,2.50
2023-04-28T00:01:40.565Z,2.27
2023-04-28T00:02:03.503Z,2.27
2023-04-28T00:02:38.707Z,2.27
2023-04-28T00:03:10.137Z,2.27
2023-04-28T00:03:41.948Z,2.27
2023-04-28T00:04:12.339Z,2.27
2023-04-28T00:04:46.077Z,2.27
2023-04-28T00:05:17.739Z,2.27
2023-04-28T00:05:40.508Z,2.27
2023-04-28T00:06:03.045Z,2.27
2023-04-28T00:06:37.644Z,2.27
2023-04-28T00:07:09.640Z,2.27
2023-04-28T00:07:41.933Z,2.27
2023-04-28T00:08:12.217Z,2.27
2023-04-28T00:08:45.822Z,2.27
2023-04-28T00:09:18.339Z,2.27
2023-04-28T00:09:41.076Z,2.27
2023-04-28T00:10:03.458Z,2.27
2023-04-28T00:10:37.787Z,2.38
2023-04-28T00:11:09.814Z,2.38
2023-04-28T00:11:41.743Z,2.38
2023-04-28T00:12:12.034Z,2.38
2023-04-28T00:12:47.230Z,2.38
2023-04-28T00:13:17.885Z,2.38
2023-04-28T00:13:40.313Z,2.38
2023-04-28T00:14:03.120Z,2.38
2023-04-28T00:14:38.170Z,2.38
2023-04-28T00:15:09.962Z,2.38
2023-04-28T00:15:41.979Z,2.38
2023-04-28T00:16:12.068Z,2.38
2023-04-28T00:16:46.727Z,2.38
2023-04-28T00:17:18.370Z,2.38
2023-04-28T00:17:41.198Z,2.38
2023-04-28T00:18:03.797Z,2.38
2023-04-28T00:18:38.174Z,2.38
2023-04-28T00:19:11.488Z,2.38
2023-04-28T00:19:42.035Z,2.38
2023-04-28T00:20:12.494Z,2.38
2023-04-28T00:20:46.301Z,2.38
2023-04-28T00:21:18.031Z,2.38
2023-04-28T00:21:40.516Z,2.38
2023-04-28T00:22:03.198Z,2.38
2023-04-28T00:22:38.810Z,2.38
2023-04-28T00:23:11.415Z,2.38
2023-04-28T00:23:42.315Z,2.38
2023-04-28T00:24:12.109Z,2.38
2023-04-28T00:24:45.683Z,2.38
2023-04-28T00:25:17.552Z,2.61
2023-04-28T00:25:40.694Z,2.61
2023-04-28T00:26:02.727Z,2.61
2023-04-28T00:26:38.652Z,2.61
2023-04-28T00:27:09.665Z,2.61
2023-04-28T00:27:46.640Z,2.61
2023-04-28T00:28:09.259Z,2.50
2023-04-28T00:28:47.426Z,2.50
2023-04-28T00:29:21.071Z,2.50
2023-04-28T00:29:40.538Z,2.50
2023-04-28T00:30:03.405Z,2.50
2023-04-28T00:30:39.095Z,2.50
2023-04-28T00:31:10.046Z,2.50
2023-04-28T00:31:41.724Z,2.50
2023-04-28T00:32:12.009Z,2.50
2023-04-28T00:32:45.576Z,2.50
2023-04-28T00:33:21.130Z,2.50
2023-04-28T00:33:41.053Z,2.50
2023-04-28T00:34:03.720Z,2.50
2023-04-28T00:34:40.155Z,2.50
2023-04-28T00:35:09.551Z,2.50
2023-04-28T00:35:41.770Z,2.50
2023-04-28T00:36:12.111Z,2.50
2023-04-28T00:36:45.963Z,2.61
2023-04-28T00:37:17.492Z,2.61
2023-04-28T00:37:40.684Z,2.61
2023-04-28T00:38:02.973Z,2.61
2023-04-28T00:38:40.201Z,2.61
2023-04-28T00:39:09.711Z,2.61
2023-04-28T00:39:41.625Z,2.61
2023-04-28T00:40:17.373Z,2.61
2023-04-28T00:40:45.665Z,2.61
2023-04-28T00:41:17.718Z,2.61
2023-04-28T00:41:44.266Z,2.61
2023-04-28T00:42:21.605Z,2.61
2023-04-28T00:42:44.372Z,2.61
2023-04-28T00:43:07.131Z,2.61
2023-04-28T00:43:41.675Z,2.61
2023-04-28T00:44:11.916Z,2.61
2023-04-28T00:44:45.722Z,2.61
2023-04-28T00:45:17.741Z,2.61
2023-04-28T00:45:40.926Z,2.61
2023-04-28T00:46:02.714Z,2.61
2023-04-28T00:46:37.714Z,2.61
2023-04-28T00:47:09.794Z,2.61
2023-04-28T00:47:41.572Z,2.61
2023-04-28T00:48:11.917Z,2.61
2023-04-28T00:48:45.812Z,2.61
2023-04-28T00:49:17.613Z,2.61
2023-04-28T00:49:41.345Z,2.61
2023-04-28T00:50:05.360Z,2.61
2023-04-28T00:50:37.571Z,2.61
2023-04-28T00:51:09.723Z,2.38
2023-04-28T00:51:41.768Z,2.38
2023-04-28T00:52:13.629Z,2.38
2023-04-28T00:52:45.914Z,2.50
2023-04-28T00:53:17.548Z,2.50
2023-04-28T00:53:43.134Z,2.50
2023-04-28T00:54:02.942Z,2.50
2023-04-28T00:54:37.880Z,2.50
2023-04-28T00:55:09.558Z,2.50
2023-04-28T00:55:35.665Z,2.50
2023-04-28T00:56:12.423Z,2.61
2023-04-28T00:56:45.781Z,2.61
2023-04-28T00:57:19.133Z,2.61
2023-04-28T00:57:42.348Z,2.61
2023-04-28T00:58:02.983Z,2.61
2023-04-28T00:58:37.934Z,2.61
2023-04-28T00:59:10.208Z,2.61
2023-04-28T00:59:43.100Z,2.61
2023-04-28T01:00:12.380Z,2.77
2023-04-28T01:00:46.033Z,2.77
2023-04-28T01:01:17.686Z,2.77
2023-04-28T01:01:40.455Z,2.77
2023-04-28T01:02:02.960Z,2.77
2023-04-28T01:02:38.213Z,2.61
2023-04-28T01:03:10.146Z,2.61
2023-04-28T01:03:43.880Z,2.61
2023-04-28T01:04:12.075Z,2.61
2023-04-28T01:04:46.535Z,2.61
2023-04-28T01:05:18.144Z,2.88
2023-04-28T01:05:40.477Z,2.88
2023-04-28T01:06:03.758Z,2.88
2023-04-28T01:06:37.989Z,2.88
2023-04-28T01:07:09.640Z,2.88
2023-04-28T01:07:44.078Z,2.88
2023-04-28T01:08:12.893Z,2.88
2023-04-28T01:08:45.574Z,2.77
2023-04-28T01:09:17.588Z,2.77
2023-04-28T01:09:40.425Z,2.77
2023-04-28T01:10:02.677Z,2.77
2023-04-28T01:10:38.274Z,2.77
2023-04-28T01:11:09.599Z,2.77
2023-04-28T01:11:44.026Z,2.77
2023-04-28T01:12:11.915Z,2.77
2023-04-28T01:12:45.760Z,3.00
2023-04-28T01:13:18.105Z,2.77
2023-04-28T01:13:42.103Z,2.77
2023-04-28T01:14:04.144Z,3.00
2023-04-28T01:14:38.234Z,3.00
2023-04-28T01:15:10.178Z,3.00
2023-04-28T01:15:42.088Z,3.00
2023-04-28T01:16:12.566Z,3.00
2023-04-28T01:16:45.845Z,3.00
2023-04-28T01:17:18.324Z,3.00
2023-04-28T01:17:41.003Z,3.00
2023-04-28T01:18:07.313Z,2.77
2023-04-28T01:18:38.972Z,3.00
2023-04-28T01:19:10.408Z,3.00
2023-04-28T01:19:42.690Z,2.77
2023-04-28T01:20:12.519Z,2.77
2023-04-28T01:20:45.972Z,2.77
2023-04-28T01:21:18.115Z,2.77
2023-04-28T01:21:40.625Z,2.77
2023-04-28T01:22:03.653Z,2.77
2023-04-28T01:22:37.519Z,2.88
2023-04-28T01:23:09.817Z,2.88
2023-04-28T01:23:41.799Z,2.88
2023-04-28T01:24:12.542Z,2.88
2023-04-28T01:24:46.964Z,2.88
2023-04-28T01:25:17.667Z,2.88
2023-04-28T01:25:40.409Z,2.88
2023-04-28T01:26:02.824Z,2.88
2023-04-28T01:26:37.941Z,2.88
2023-04-28T01:27:09.988Z,2.88
2023-04-28T01:27:41.607Z,3.11
2023-04-28T01:28:13.663Z,3.11
2023-04-28T01:28:46.704Z,3.11
2023-04-28T01:29:18.138Z,3.11
2023-04-28T01:29:40.954Z,3.11
2023-04-28T01:30:04.273Z,3.11
2023-04-28T01:30:38.224Z,3.11
2023-04-28T01:31:10.978Z,3.11
2023-04-28T01:31:41.623Z,3.11
2023-04-28T01:32:12.591Z,3.11
2023-04-28T01:32:47.037Z,3.11
2023-04-28T01:33:17.953Z,3.11
2023-04-28T01:33:40.433Z,3.11
2023-04-28T01:34:03.180Z,3.11
2023-04-28T01:34:39.794Z,3.11
2023-04-28T01:35:13.447Z,3.11
2023-04-28T01:35:42.012Z,3.11
2023-04-28T01:36:12.060Z,3.11
2023-04-28T01:36:47.366Z,3.11
2023-04-28T01:37:17.853Z,2.88
2023-04-28T01:37:40.299Z,2.88
2023-04-28T01:38:02.861Z,2.88
2023-04-28T01:38:38.966Z,2.88
2023-04-28T01:39:12.201Z,2.88
2023-04-28T01:39:41.886Z,3.11
2023-04-28T01:40:12.481Z,3.11
2023-04-28T01:40:47.933Z,3.11
2023-04-28T01:41:17.764Z,3.11
2023-04-28T01:41:40.973Z,3.11
2023-04-28T01:42:02.741Z,3.11
2023-04-28T01:42:37.838Z,3.11
2023-04-28T01:43:10.261Z,3.11
2023-04-28T01:43:42.177Z,3.11
2023-04-28T01:44:12.029Z,3.11
2023-04-28T01:44:45.748Z,3.11
2023-04-28T01:45:17.579Z,3.11
2023-04-28T01:45:40.271Z,3.11
2023-04-28T01:46:02.879Z,3.11
2023-04-28T01:46:38.031Z,3.11
2023-04-28T01:47:10.435Z,3.11
2023-04-28T01:47:41.717Z,3.11
2023-04-28T01:48:12.157Z,3.11
2023-04-28T01:48:46.315Z,3.11
2023-04-28T01:49:17.639Z,3.11
2023-04-28T01:49:40.410Z,3.11
2023-04-28T01:50:02.840Z,3.11
2023-04-28T01:50:38.749Z,3.11
2023-04-28T01:51:10.126Z,3.27
2023-04-28T01:51:42.265Z,3.11
2023-04-28T01:52:12.655Z,3.27
2023-04-28T01:52:46.603Z,3.11
2023-04-28T01:53:17.787Z,3.22
2023-04-28T01:53:40.508Z,3.22
2023-04-28T01:54:03.859Z,3.22
2023-04-28T01:54:37.890Z,3.00
2023-04-28T01:55:09.696Z,3.00
2023-04-28T01:55:41.696Z,3.00
2023-04-28T01:56:15.726Z,3.11
2023-04-28T01:56:45.996Z,3.11
2023-04-28T01:57:18.450Z,3.11
2023-04-28T01:57:40.582Z,3.11
2023-04-28T01:58:04.097Z,3.11
2023-04-28T01:58:38.063Z,3.11
2023-04-28T01:59:11.036Z,3.11
2023-04-28T01:59:41.991Z,2.88
2023-04-28T02:00:12.435Z,3.00
2023-04-28T02:00:47.252Z,3.00
2023-04-28T02:01:24.549Z,3.00
2023-04-28T02:01:46.972Z,3.00
2023-04-28T02:02:47.940Z,3.00
2023-04-28T02:03:06.935Z,3.00
2023-04-28T02:03:41.769Z,3.00
2023-04-28T02:04:11.914Z,3.00
2023-04-28T02:04:45.600Z,3.00
2023-04-28T02:05:17.570Z,3.11
2023-04-28T02:05:40.581Z,3.11
2023-04-28T02:06:02.896Z,3.11
2023-04-28T02:06:37.438Z,3.11
2023-04-28T02:07:09.623Z,3.11
2023-04-28T02:07:41.586Z,3.11
2023-04-28T02:08:12.079Z,3.27
2023-04-28T02:08:45.549Z,3.11
2023-04-28T02:09:17.701Z,3.11
2023-04-28T02:09:40.546Z,3.11
2023-04-28T02:10:03.003Z,3.27
2023-04-28T02:10:37.575Z,3.27
2023-04-28T02:11:09.596Z,3.11
2023-04-28T02:11:41.580Z,3.27
2023-04-28T02:12:12.345Z,3.27
2023-04-28T02:12:45.659Z,3.27
2023-04-28T02:13:22.961Z,3.27
2023-04-28T02:13:44.779Z,3.27
2023-04-28T02:14:03.907Z,3.27
2023-04-28T02:14:37.705Z,3.27
2023-04-28T02:15:04.289Z,3.27
2023-04-28T02:15:41.809Z,3.27
2023-04-28T02:16:12.668Z,3.27
2023-04-28T02:16:45.562Z,3.27
2023-04-28T02:17:18.193Z,3.27
2023-04-28T02:17:40.776Z,3.27
2023-04-28T02:18:03.278Z,3.27
2023-04-28T02:18:38.681Z,3.27
2023-04-28T02:19:09.636Z,3.27
2023-04-28T02:19:44.652Z,3.27
2023-04-28T02:20:31.820Z,3.27
2023-04-28T02:20:53.920Z,3.27
2023-04-28T02:21:14.821Z,3.27
2023-04-28T02:21:49.812Z,3.27
2023-04-28T02:22:21.650Z,3.27
2023-04-28T02:22:44.430Z,3.27
2023-04-28T02:23:06.969Z,3.27
2023-04-28T02:23:42.243Z,3.27
2023-04-28T02:24:12.089Z,3.27
2023-04-28T02:24:45.924Z,3.27
2023-04-28T02:25:17.960Z,3.27
2023-04-28T02:25:40.659Z,3.27
2023-04-28T02:26:03.066Z,3.27
2023-04-28T02:26:37.623Z,3.27
2023-04-28T02:27:09.765Z,3.27
2023-04-28T02:27:41.801Z,3.27
2023-04-28T02:28:18.807Z,3.38
2023-04-28T02:28:41.223Z,3.38
2023-04-28T02:29:12.509Z,3.38
2023-04-28T02:29:46.104Z,3.38
2023-04-28T02:30:23.669Z,3.38
2023-04-28T02:30:55.476Z,3.38
2023-04-28T02:31:25.748Z,3.38
2023-04-28T02:31:48.403Z,3.38
2023-04-28T02:32:14.085Z,3.38
2023-04-28T02:32:46.698Z,3.38
2023-04-28T02:33:19.058Z,3.38
2023-04-28T02:33:41.515Z,3.38
2023-04-28T02:34:04.331Z,3.38
2023-04-28T02:34:37.877Z,3.38
2023-04-28T02:35:10.351Z,3.38
2023-04-28T02:35:41.997Z,3.38
2023-04-28T02:36:12.367Z,3.38
2023-04-28T02:36:45.822Z,3.22
2023-04-28T02:37:17.773Z,3.38
2023-04-28T02:37:40.558Z,3.38
2023-04-28T02:38:02.952Z,3.38
2023-04-28T02:38:38.188Z,3.38
2023-04-28T02:39:09.933Z,3.38
2023-04-28T02:39:48.465Z,3.22
2023-04-28T02:40:10.793Z,3.22
2023-04-28T02:40:45.587Z,3.22
2023-04-28T02:41:17.713Z,3.22
2023-04-28T02:41:40.884Z,3.22
2023-04-28T02:42:03.297Z,3.27
2023-04-28T02:42:37.460Z,3.50
2023-04-28T02:43:09.971Z,3.50
2023-04-28T02:43:41.632Z,3.50
2023-04-28T02:44:11.883Z,3.50
2023-04-28T02:44:45.503Z,3.50
2023-04-28T02:45:17.671Z,3.50
2023-04-28T02:45:40.838Z,3.50
2023-04-28T02:46:03.087Z,3.50
2023-04-28T02:46:37.568Z,3.50
2023-04-28T02:47:09.535Z,3.50
2023-04-28T02:47:41.521Z,3.50
2023-04-28T02:48:11.892Z,3.50
2023-04-28T02:48:48.896Z,3.50
2023-04-28T02:49:17.531Z,3.50
2023-04-28T02:49:40.816Z,3.50
2023-04-28T02:50:03.293Z,3.38
2023-04-28T02:50:37.573Z,3.38
2023-04-28T02:51:09.461Z,3.50
2023-04-28T02:51:41.745Z,3.50
2023-04-28T02:52:12.362Z,3.50
2023-04-28T02:52:47.089Z,3.27
2023-04-28T02:53:18.005Z,3.50
2023-04-28T02:53:40.961Z,3.50
2023-04-28T02:54:03.878Z,3.50
2023-04-28T02:54:37.545Z,3.50
2023-04-28T02:55:09.820Z,3.50
2023-04-28T02:55:44.912Z,3.50
2023-04-28T02:56:11.895Z,3.50
2023-04-28T02:56:45.425Z,3.50
2023-04-28T02:57:17.684Z,3.50
2023-04-28T02:57:40.141Z,3.50
2023-04-28T02:58:02.762Z,3.50
2023-04-28T02:58:37.568Z,3.50
2023-04-28T02:59:09.751Z,3.50
2023-04-28T02:59:41.363Z,3.50
2023-04-28T03:00:12.159Z,3.50
2023-04-28T03:00:41.202Z,3.50
2023-04-28T03:01:12.165Z,3.27
2023-04-28T03:01:43.891Z,3.27
2023-04-28T03:02:21.791Z,3.50
2023-04-28T03:02:44.836Z,3.61
2023-04-28T03:03:07.157Z,3.61
2023-04-28T03:03:41.634Z,3.61
2023-04-28T03:04:12.083Z,3.61
2023-04-28T03:04:45.708Z,3.61
2023-04-28T03:05:17.625Z,3.61
2023-04-28T03:05:40.400Z,3.61
2023-04-28T03:06:02.802Z,3.61
2023-04-28T03:06:37.535Z,3.61
2023-04-28T03:07:09.510Z,3.61
2023-04-28T03:07:41.504Z,3.61
2023-04-28T03:08:12.032Z,3.61
2023-04-28T03:08:45.757Z,3.61
2023-04-28T03:09:17.564Z,3.61
2023-04-28T03:09:42.258Z,3.61
2023-04-28T03:10:03.041Z,3.61
2023-04-28T03:10:37.502Z,3.61
2023-04-28T03:11:09.835Z,3.61
2023-04-28T03:11:41.696Z,3.61
2023-04-28T03:12:11.900Z,3.61
2023-04-28T03:12:45.509Z,3.61
2023-04-28T03:13:19.030Z,3.61
2023-04-28T03:13:42.272Z,3.61
2023-04-28T03:14:04.473Z,3.61
2023-04-28T03:14:38.007Z,3.61
2023-04-28T03:15:10.367Z,3.61
2023-04-28T03:15:41.780Z,3.61
2023-04-28T03:16:11.911Z,3.61
2023-04-28T03:16:45.559Z,3.61
2023-04-28T03:17:17.468Z,3.61
2023-04-28T03:17:44.043Z,3.61
2023-04-28T03:18:21.543Z,3.61
2023-04-28T03:18:44.557Z,3.61
2023-04-28T03:19:07.034Z,3.61
2023-04-28T03:19:41.412Z,3.61
2023-04-28T03:20:11.902Z,3.61
2023-04-28T03:20:45.407Z,3.61
2023-04-28T03:21:17.385Z,3.61
2023-04-28T03:21:40.296Z,3.61
2023-04-28T03:22:04.037Z,3.61
2023-04-28T03:22:37.681Z,3.61
2023-04-28T03:23:09.387Z,3.61
2023-04-28T03:23:41.481Z,3.61
2023-04-28T03:24:12.112Z,3.61
2023-04-28T03:24:45.566Z,3.61
2023-04-28T03:25:17.339Z,3.61
2023-04-28T03:25:40.519Z,3.61
2023-04-28T03:26:07.142Z,3.61
2023-04-28T03:26:37.491Z,3.61
2023-04-28T03:27:09.492Z,3.61
2023-04-28T03:27:41.375Z,3.61
2023-04-28T03:28:13.653Z,3.61
2023-04-28T03:28:45.868Z,3.61
2023-04-28T03:29:17.750Z,3.61
2023-04-28T03:29:41.492Z,3.61
2023-04-28T03:30:05.694Z,3.61
2023-04-28T03:30:37.508Z,3.61
2023-04-28T03:31:09.741Z,3.61
2023-04-28T03:31:41.568Z,3.72
2023-04-28T03:32:12.149Z,3.72
2023-04-28T03:32:45.439Z,3.72
2023-04-28T03:33:18.020Z,3.72
2023-04-28T03:33:41.069Z,3.72
2023-04-28T03:34:03.120Z,3.72
2023-04-28T03:34:40.920Z,3.72
2023-04-28T03:35:09.408Z,3.72
2023-04-28T03:35:42.042Z,3.72
2023-04-28T03:36:11.942Z,3.72
2023-04-28T03:36:45.720Z,3.72
2023-04-28T03:37:17.328Z,3.72
2023-04-28T03:37:40.120Z,3.72
2023-04-28T03:38:02.452Z,3.72
2023-04-28T03:38:37.566Z,3.72
2023-04-28T03:39:09.719Z,3.72
2023-04-28T03:39:41.427Z,3.72
2023-04-28T03:40:12.006Z,3.72
2023-04-28T03:40:45.341Z,3.72
2023-04-28T03:41:17.604Z,3.72
2023-04-28T03:41:40.940Z,3.72
2023-04-28T03:42:03.168Z,3.88
2023-04-28T03:42:37.357Z,3.88
2023-04-28T03:43:09.947Z,3.72
2023-04-28T03:43:41.858Z,3.72
2023-04-28T03:44:11.992Z,3.72
2023-04-28T03:44:45.476Z,3.72
2023-04-28T03:45:17.705Z,3.88
2023-04-28T03:45:40.473Z,3.88
2023-04-28T03:46:02.863Z,3.88
2023-04-28T03:46:37.320Z,3.88
2023-04-28T03:47:09.365Z,3.88
2023-04-28T03:47:41.541Z,3.88
2023-04-28T03:48:11.914Z,3.77
2023-04-28T03:48:45.320Z,3.77
2023-04-28T03:49:17.457Z,3.77
2023-04-28T03:49:40.396Z,3.77
2023-04-28T03:50:03.141Z,3.77
2023-04-28T03:50:37.643Z,3.77
2023-04-28T03:51:09.329Z,3.77
2023-04-28T03:51:41.561Z,3.77
2023-04-28T03:52:13.417Z,3.77
2023-04-28T03:52:45.577Z,3.77
2023-04-28T03:53:17.635Z,3.77
2023-04-28T03:53:41.186Z,3.77
2023-04-28T03:54:03.400Z,3.77
2023-04-28T03:54:37.495Z,3.77
2023-04-28T03:55:10.816Z,3.77
2023-04-28T03:55:41.510Z,3.77
2023-04-28T03:56:12.115Z,3.77
2023-04-28T03:56:47.391Z,3.77
2023-04-28T03:57:18.966Z,3.77
2023-04-28T03:57:41.007Z,3.77
2023-04-28T03:58:03.301Z,3.77
2023-04-28T03:58:37.462Z,4.00
2023-04-28T03:59:10.364Z,4.00
2023-04-28T03:59:42.022Z,4.00
2023-04-28T04:00:15.181Z,4.00
2023-04-28T04:00:45.503Z,4.00
2023-04-28T04:01:17.501Z,4.00
2023-04-28T04:01:40.614Z,4.00
2023-04-28T04:02:07.499Z,4.00
2023-04-28T04:02:40.245Z,4.00
2023-04-28T04:03:10.867Z,4.00
2023-04-28T04:03:41.754Z,4.22
2023-04-28T04:04:12.377Z,4.22
2023-04-28T04:04:45.634Z,4.22
2023-04-28T04:05:17.474Z,4.22
2023-04-28T04:05:40.498Z,4.22
2023-04-28T04:06:03.020Z,4.22
2023-04-28T04:06:37.461Z,4.11
2023-04-28T04:07:10.948Z,4.11
2023-04-28T04:07:41.964Z,4.27
2023-04-28T04:08:11.922Z,4.27
2023-04-28T04:08:45.438Z,4.27
2023-04-28T04:09:18.976Z,4.27
2023-04-28T04:09:40.431Z,4.27
2023-04-28T04:10:04.440Z,4.27
2023-04-28T04:10:37.442Z,4.27
2023-04-28T04:11:11.605Z,4.50
2023-04-28T04:11:41.987Z,4.50
2023-04-28T04:12:12.049Z,4.38
2023-04-28T04:12:45.655Z,4.38
2023-04-28T04:13:23.004Z,4.38
2023-04-28T04:13:40.535Z,4.38
2023-04-28T04:14:04.567Z,4.38
2023-04-28T04:14:37.582Z,4.38
2023-04-28T04:15:12.231Z,4.38
2023-04-28T04:15:41.519Z,4.27
2023-04-28T04:16:12.431Z,4.27
2023-04-28T04:16:45.458Z,4.27
2023-04-28T04:17:17.868Z,4.27
2023-04-28T04:17:41.761Z,4.27
2023-04-28T04:18:03.458Z,4.27
2023-04-28T04:18:37.446Z,4.27
2023-04-28T04:19:09.835Z,4.50
2023-04-28T04:19:41.535Z,4.50
2023-04-28T04:20:13.019Z,4.50
2023-04-28T04:20:45.578Z,4.50
2023-04-28T04:21:17.514Z,4.50
2023-04-28T04:21:40.867Z,4.50
2023-04-28T04:22:03.028Z,4.72
2023-04-28T04:22:37.514Z,4.72
2023-04-28T04:23:09.617Z,4.72
2023-04-28T04:23:42.237Z,4.72
2023-04-28T04:24:13.566Z,4.72
2023-04-28T04:24:45.548Z,4.61
2023-04-28T04:25:17.403Z,4.61
2023-04-28T04:25:40.168Z,4.61
2023-04-28T04:26:02.536Z,4.61
2023-04-28T04:26:37.586Z,4.77
2023-04-28T04:27:09.627Z,4.77
2023-04-28T04:27:41.489Z,4.77
2023-04-28T04:28:14.186Z,5.11
2023-04-28T04:28:48.057Z,5.11
2023-04-28T04:29:17.450Z,5.11
2023-04-28T04:29:40.360Z,5.11
2023-04-28T04:30:03.009Z,5.00
2023-04-28T04:30:37.717Z,5.00
2023-04-28T04:31:10.026Z,4.88
2023-04-28T04:31:41.478Z,4.88
2023-04-28T04:32:14.555Z,4.88
2023-04-28T04:32:45.440Z,4.77
2023-04-28T04:33:17.638Z,4.77
2023-04-28T04:33:40.991Z,4.77
2023-04-28T04:34:03.294Z,5.00
2023-04-28T04:34:38.007Z,5.00
2023-04-28T04:35:09.751Z,5.22
2023-04-28T04:35:41.361Z,5.27
2023-04-28T04:36:12.005Z,5.38
2023-04-28T04:36:45.672Z,5.38
2023-04-28T04:37:17.611Z,5.38
2023-04-28T04:37:41.089Z,5.61
2023-04-28T04:38:03.644Z,5.61
2023-04-28T04:38:37.416Z,5.50
2023-04-28T04:39:09.531Z,5.50
2023-04-28T04:39:41.378Z,5.50
2023-04-28T04:40:15.456Z,5.38
2023-04-28T04:40:45.565Z,5.27
2023-04-28T04:41:17.396Z,5.27
2023-04-28T04:41:40.589Z,5.27
2023-04-28T04:42:13.240Z,5.22
2023-04-28T04:42:37.881Z,5.22
2023-04-28T04:43:10.040Z,5.22
2023-04-28T04:43:41.683Z,5.22
2023-04-28T04:44:14.075Z,5.22
2023-04-28T04:44:45.447Z,5.22
2023-04-28T04:45:17.686Z,5.22
2023-04-28T04:45:40.511Z,5.22
2023-04-28T04:46:03.490Z,5.22
2023-04-28T04:46:37.449Z,5.22
2023-04-28T04:47:09.739Z,5.22
2023-04-28T04:47:41.429Z,5.27
2023-04-28T04:48:12.030Z,5.50
2023-04-28T04:48:45.966Z,5.50
2023-04-28T04:49:17.621Z,5.50
2023-04-28T04:49:41.214Z,5.50
2023-04-28T04:50:03.534Z,5.27
2023-04-28T04:50:37.484Z,5.27
2023-04-28T04:51:09.508Z,5.27
2023-04-28T04:51:41.468Z,5.22
2023-04-28T04:52:12.025Z,5.22
2023-04-28T04:52:47.056Z,5.22
2023-04-28T04:53:17.496Z,5.22
2023-04-28T04:53:40.549Z,5.22
2023-04-28T04:54:03.119Z,5.22
2023-04-28T04:54:37.585Z,5.22
2023-04-28T04:55:09.456Z,5.27
2023-04-28T04:55:41.649Z,5.27
2023-04-28T04:56:12.104Z,5.27
2023-04-28T04:56:45.509Z,5.27
2023-04-28T04:57:18.149Z,5.27
2023-04-28T04:57:40.542Z,5.27
2023-04-28T04:58:02.866Z,5.27
2023-04-28T04:58:37.589Z,5.27
2023-04-28T04:59:09.691Z,5.27
2023-04-28T04:59:42.072Z,5.38
2023-04-28T05:00:12.307Z,5.61
2023-04-28T05:00:46.197Z,5.61
2023-04-28T05:01:18.564Z,5.61
2023-04-28T05:01:40.499Z,5.61
2023-04-28T05:02:08.574Z,5.61
2023-04-28T05:02:37.813Z,5.61
2023-04-28T05:03:09.725Z,5.61
2023-04-28T05:03:41.522Z,5.61
2023-04-28T05:04:12.175Z,5.61
2023-04-28T05:04:45.788Z,5.61
2023-04-28T05:05:21.779Z,5.61
2023-04-28T05:05:41.052Z,5.61
2023-04-28T05:06:03.402Z,5.61
2023-04-28T05:06:37.442Z,5.61
2023-04-28T05:07:09.752Z,5.88
2023-04-28T05:07:41.393Z,5.88
2023-04-28T05:08:12.083Z,5.88
2023-04-28T05:08:45.412Z,5.88
2023-04-28T05:09:19.995Z,5.88
2023-04-28T05:09:43.689Z,5.88
2023-04-28T05:10:21.336Z,5.77
2023-04-28T05:10:44.242Z,5.77
2023-04-28T05:11:06.650Z,5.77
2023-04-28T05:11:41.464Z,5.77
2023-04-28T05:12:13.601Z,5.77
2023-04-28T05:12:48.763Z,5.77
2023-04-28T05:13:25.325Z,5.77
2023-04-28T05:13:40.613Z,5.77
2023-04-28T05:14:02.930Z,5.77
2023-04-28T05:14:37.861Z,5.77
2023-04-28T05:15:09.740Z,5.77
2023-04-28T05:16:12.217Z,5.77
2023-04-28T05:16:45.728Z,5.77
2023-04-28T05:17:17.587Z,5.77
2023-04-28T05:17:43.282Z,5.77
2023-04-28T05:18:03.297Z,5.77
2023-04-28T05:18:37.461Z,5.77
2023-04-28T05:19:09.495Z,5.77
2023-04-28T05:19:48.845Z,5.77
2023-04-28T05:20:12.957Z,5.72
2023-04-28T05:20:45.333Z,5.72
2023-04-28T05:21:17.497Z,5.72
2023-04-28T05:21:40.208Z,5.72
2023-04-28T05:22:02.648Z,5.72
2023-04-28T05:22:37.398Z,5.72
2023-04-28T05:23:09.470Z,5.77
2023-04-28T05:23:41.466Z,5.77
2023-04-28T05:24:12.237Z,5.77
2023-04-28T05:24:45.395Z,5.77
2023-04-28T05:25:17.443Z,5.77
2023-04-28T05:25:40.288Z,5.77
2023-04-28T05:26:02.592Z,5.77
2023-04-28T05:26:37.546Z,5.77
2023-04-28T05:27:11.901Z,5.77
2023-04-28T05:27:41.521Z,5.77
2023-04-28T05:28:13.608Z,5.77
2023-04-28T05:28:51.131Z,5.77
2023-04-28T05:29:18.576Z,5.77
2023-04-28T05:29:40.718Z,5.77
2023-04-28T05:30:08.653Z,5.77
2023-04-28T05:30:37.461Z,5.88
2023-04-28T05:31:09.443Z,5.88
2023-04-28T05:31:41.789Z,5.88
2023-04-28T05:32:12.111Z,5.88
2023-04-28T05:32:45.514Z,5.88
2023-04-28T05:33:17.524Z,5.88
2023-04-28T05:33:40.561Z,5.88
2023-04-28T05:34:02.945Z,5.88
2023-04-28T05:34:37.989Z,5.88
2023-04-28T05:35:09.752Z,5.88
2023-04-28T05:35:41.670Z,5.88
2023-04-28T05:36:12.043Z,5.88
2023-04-28T05:36:45.764Z,5.88
2023-04-28T05:37:17.867Z,5.88
2023-04-28T05:37:41.804Z,5.88
2023-04-28T05:38:02.720Z,5.88
2023-04-28T05:38:37.574Z,5.88
2023-04-28T05:39:18.047Z,5.88
2023-04-28T05:39:41.349Z,5.88
2023-04-28T05:40:12.124Z,6.00
2023-04-28T05:40:45.554Z,6.00
2023-04-28T05:41:19.037Z,6.00
2023-04-28T05:41:40.792Z,6.00
2023-04-28T05:42:02.868Z,6.00
2023-04-28T05:42:37.883Z,6.00
2023-04-28T05:43:10.904Z,6.00
2023-04-28T05:43:41.630Z,6.00
2023-04-28T05:44:12.135Z,6.00
2023-04-28T05:44:45.508Z,6.00
2023-04-28T05:45:17.667Z,6.00
2023-04-28T05:45:40.108Z,6.00
2023-04-28T05:46:02.456Z,6.11
2023-04-28T05:46:37.533Z,6.11
2023-04-28T05:47:09.394Z,6.11
2023-04-28T05:47:41.487Z,6.11
2023-04-28T05:48:12.360Z,6.11
2023-04-28T05:48:45.471Z,6.11
2023-04-28T05:49:12.189Z,6.11
2023-04-28T05:49:46.618Z,6.22
2023-04-28T05:50:21.815Z,6.22
2023-04-28T05:50:44.430Z,6.22
2023-04-28T05:51:08.968Z,6.22
2023-04-28T05:51:41.602Z,6.22
2023-04-28T05:52:12.406Z,6.22
2023-04-28T05:52:45.912Z,6.22
2023-04-28T05:53:18.117Z,6.00
2023-04-28T05:53:40.806Z,6.00
2023-04-28T05:54:05.782Z,6.22
2023-04-28T05:54:38.268Z,6.22
2023-04-28T05:55:10.332Z,6.22
2023-04-28T05:55:41.629Z,6.22
2023-04-28T05:56:12.101Z,6.22
2023-04-28T05:56:45.325Z,6.22
2023-04-28T05:57:17.777Z,6.22
2023-04-28T05:57:49.777Z,6.22
2023-04-28T05:58:06.431Z,6.22
2023-04-28T05:58:37.669Z,6.22
2023-04-28T05:59:13.326Z,6.22
2023-04-28T05:59:42.273Z,6.22
2023-04-28T06:00:16.127Z,6.22
2023-04-28T06:00:46.047Z,6.22
2023-04-28T06:01:18.484Z,6.22
2023-04-28T06:01:41.046Z,6.22
2023-04-28T06:02:03.338Z,6.22
2023-04-28T06:02:39.845Z,6.22
2023-04-28T06:03:09.612Z,6.22
2023-04-28T06:03:42.266Z,6.22
2023-04-28T06:04:13.170Z,6.22
2023-04-28T06:04:45.815Z,6.22
2023-04-28T06:05:17.851Z,6.22
2023-04-28T06:05:40.568Z,6.22
2023-04-28T06:06:03.566Z,6.22
2023-04-28T06:06:37.678Z,6.22
2023-04-28T06:07:09.532Z,6.22
2023-04-28T06:07:41.349Z,6.22
2023-04-28T06:08:13.718Z,6.22
2023-04-28T06:08:45.838Z,6.22
2023-04-28T06:09:19.291Z,6.22
2023-04-28T06:09:41.910Z,6.22
2023-04-28T06:10:04.573Z,6.22
2023-04-28T06:10:37.934Z,6.27
2023-04-28T06:11:09.493Z,6.27
2023-04-28T06:11:44.611Z,6.27
2023-04-28T06:12:30.374Z,6.27
2023-04-28T06:12:52.175Z,6.27
2023-04-28T06:13:15.520Z,6.27
2023-04-28T06:13:38.016Z,6.27
2023-04-28T06:14:00.661Z,6.27
2023-04-28T06:14:38.155Z,6.38
2023-04-28T06:15:10.397Z,6.38
2023-04-28T06:15:42.135Z,6.38
2023-04-28T06:16:15.561Z,6.38
2023-04-28T06:16:46.673Z,6.38
2023-04-28T06:17:17.476Z,6.38
2023-04-28T06:17:40.278Z,6.38
2023-04-28T06:18:03.128Z,6.38
2023-04-28T06:18:37.962Z,6.38
2023-04-28T06:19:10.427Z,6.38
2023-04-28T06:19:44.274Z,6.38
2023-04-28T06:20:35.648Z,6.38
2023-04-28T06:20:57.910Z,6.38
2023-04-28T06:21:33.984Z,6.38
2023-04-28T06:22:05.537Z,6.38
2023-04-28T06:22:37.369Z,6.72
2023-04-28T06:23:09.448Z,6.72
2023-04-28T06:23:41.417Z,6.72
2023-04-28T06:24:12.035Z,6.72
2023-04-28T06:24:45.443Z,6.72
2023-04-28T06:25:12.538Z,6.72
2023-04-28T06:25:43.783Z,6.72
2023-04-28T06:26:21.444Z,6.72
2023-04-28T06:26:44.075Z,6.72
2023-04-28T06:27:09.097Z,6.72
2023-04-28T06:27:41.344Z,6.72
2023-04-28T06:28:14.100Z,6.72
2023-04-28T06:28:47.911Z,6.77
2023-04-28T06:29:18.991Z,6.77
2023-04-28T06:29:41.185Z,6.77
2023-04-28T06:30:04.004Z,6.77
2023-04-28T06:30:38.551Z,6.77
2023-04-28T06:31:10.246Z,6.77
2023-04-28T06:31:41.657Z,6.77
2023-04-28T06:32:12.508Z,6.77
2023-04-28T06:32:46.332Z,6.77
2023-04-28T06:33:18.185Z,6.88
2023-04-28T06:33:40.392Z,6.88
2023-04-28T06:34:03.071Z,6.88
2023-04-28T06:34:38.085Z,6.88
2023-04-28T06:35:10.073Z,6.88
2023-04-28T06:35:41.915Z,6.88
2023-04-28T06:36:12.496Z,6.88
2023-04-28T06:36:45.463Z,6.88
2023-04-28T06:37:17.687Z,6.88
2023-04-28T06:37:40.302Z,6.88
2023-04-28T06:38:03.615Z,6.88
2023-04-28T06:38:39.068Z,7.00
2023-04-28T06:39:09.607Z,7.00
2023-04-28T06:39:41.984Z,7.00
2023-04-28T06:40:12.834Z,7.00
2023-04-28T06:40:45.523Z,7.00